Tillsonburg, Canada
Current Conditions -  °F | °C
As of 8:00 AM on Wednesday 22 Oct 2014 (Local Time) from CYHM Reporting Station
Overcast Overcast  
Wind Chill: 36°   Ceiling: 2300
Heat Index: 41°   Visibility: 15mi
Dew Point: 34°   Wind: 7mph
Humidity: 76%   Direction: 360°N
Pressure: 30.23"   Gusts: NA
Location:  42.8°N, 80.15°W
Report Text: CYHM 221200Z 36006KT 15SM OVC023 05/01 A3023 RMK SC8 SLP244
Loading
Personal Weather Stations






























Interactive Weather Map
Tropical Storm Tracking
New forecast layout! Learn more

10-Day Weather Forecast

Advertisements
Track Severe Weather on mobile